sensor_id;sensor_type;location;lat;lon;timestamp;P1;P2;P0
69688;PMS5003;56932;38.402;-96.176;2023-04-03T00:00:22;2;2;
69688;PMS5003;56932;38.402;-96.176;2023-04-03T00:02:47;4;2;
69688;PMS5003;56932;38.402;-96.176;2023-04-03T00:05:12;2;2;
69688;PMS5003;56932;38.402;-96.176;2023-04-03T00:07:38;2;2;
69688;PMS5003;56932;38.402;-96.176;2023-04-03T00:10:04;2;1;
69688;PMS5003;56932;38.402;-96.176;2023-04-03T00:12:29;2;2;
69688;PMS5003;56932;38.402;-96.176;2023-04-03T00:14:54;3;1;
69688;PMS5003;56932;38.402;-96.176;2023-04-03T00:17:20;5;3;
69688;PMS5003;56932;38.402;-96.176;2023-04-03T00:19:45;1;1;
69688;PMS5003;56932;38.402;-96.176;2023-04-03T00:22:11;3;1;
69688;PMS5003;56932;38.402;-96.176;2023-04-03T00:24:37;2;2;
69688;PMS5003;56932;38.402;-96.176;2023-04-03T00:27:02;2;2;
69688;PMS5003;56932;38.402;-96.176;2023-04-03T00:29:27;1;1;
69688;PMS5003;56932;38.402;-96.176;2023-04-03T00:31:53;2;1;
69688;PMS5003;56932;38.402;-96.176;2023-04-03T00:34:18;2;1;
69688;PMS5003;56932;38.402;-96.176;2023-04-03T00:36:44;0;0;
69688;PMS5003;56932;38.402;-96.176;2023-04-03T00:39:09;2;1;
69688;PMS5003;56932;38.402;-96.176;2023-04-03T00:41:35;3;2;
69688;PMS5003;56932;38.402;-96.176;2023-04-03T00:44:00;1;1;
69688;PMS5003;56932;38.402;-96.176;2023-04-03T00:46:26;2;2;
69688;PMS5003;56932;38.402;-96.176;2023-04-03T00:48:51;1;1;
69688;PMS5003;56932;38.402;-96.176;2023-04-03T00:51:18;1;1;
69688;PMS5003;56932;38.402;-96.176;2023-04-03T00:53:44;1;1;
69688;PMS5003;56932;38.402;-96.176;2023-04-03T00:56:08;9;1;
69688;PMS5003;56932;38.402;-96.176;2023-04-03T00:58:34;1;1;
69688;PMS5003;56932;38.402;-96.176;2023-04-03T01:00:58;1;1;
69688;PMS5003;56932;38.402;-96.176;2023-04-03T01:03:24;1;1;
69688;PMS5003;56932;38.402;-96.176;2023-04-03T01:05:50;0;0;
69688;PMS5003;56932;38.402;-96.176;2023-04-03T01:08:15;1;1;
69688;PMS5003;56932;38.402;-96.176;2023-04-03T01:10:41;2;2;
69688;PMS5003;56932;38.402;-96.176;2023-04-03T01:15:32;1;1;
69688;PMS5003;56932;38.402;-96.176;2023-04-03T01:17:57;2;2;
69688;PMS5003;56932;38.402;-96.176;2023-04-03T01:22:48;2;2;
69688;PMS5003;56932;38.402;-96.176;2023-04-03T01:25:14;0;0;
69688;PMS5003;56932;38.402;-96.176;2023-04-03T01:27:39;1;1;
69688;PMS5003;56932;38.402;-96.176;2023-04-03T01:30:05;1;0;
69688;PMS5003;56932;38.402;-96.176;2023-04-03T01:32:30;6;4;
69688;PMS5003;56932;38.402;-96.176;2023-04-03T01:34:55;1;1;
69688;PMS5003;56932;38.402;-96.176;2023-04-03T01:37:21;2;2;
69688;PMS5003;56932;38.402;-96.176;2023-04-03T01:39:46;4;3;
69688;PMS5003;56932;38.402;-96.176;2023-04-03T01:42:12;2;2;
69688;PMS5003;56932;38.402;-96.176;2023-04-03T01:44:37;4;2;
69688;PMS5003;56932;38.402;-96.176;2023-04-03T01:47:05;3;3;
69688;PMS5003;56932;38.402;-96.176;2023-04-03T01:49:28;2;2;
69688;PMS5003;56932;38.402;-96.176;2023-04-03T01:51:54;2;2;
69688;PMS5003;56932;38.402;-96.176;2023-04-03T01:54:19;2;2;
69688;PMS5003;56932;38.402;-96.176;2023-04-03T01:56:45;4;4;
69688;PMS5003;56932;38.402;-96.176;2023-04-03T01:59:10;4;3;
69688;PMS5003;56932;38.402;-96.176;2023-04-03T02:01:36;1;1;
69688;PMS5003;56932;38.402;-96.176;2023-04-03T02:04:01;4;3;
69688;PMS5003;56932;38.402;-96.176;2023-04-03T02:06:27;3;2;
69688;PMS5003;56932;38.402;-96.176;2023-04-03T02:08:52;3;3;
69688;PMS5003;56932;38.402;-96.176;2023-04-03T02:11:18;4;2;
69688;PMS5003;56932;38.402;-96.176;2023-04-03T02:13:43;7;2;
69688;PMS5003;56932;38.402;-96.176;2023-04-03T02:16:09;5;5;
69688;PMS5003;56932;38.402;-96.176;2023-04-03T02:18:34;5;4;
69688;PMS5003;56932;38.402;-96.176;2023-04-03T02:21:00;6;4;
69688;PMS5003;56932;38.402;-96.176;2023-04-03T02:23:25;4;4;
69688;PMS5003;56932;38.402;-96.176;2023-04-03T02:25:50;8;4;
69688;PMS5003;56932;38.402;-96.176;2023-04-03T02:28:16;4;3;
69688;PMS5003;56932;38.402;-96.176;2023-04-03T02:30:41;6;5;
69688;PMS5003;56932;38.402;-96.176;2023-04-03T02:33:07;3;3;
69688;PMS5003;56932;38.402;-96.176;2023-04-03T02:35:32;7;5;
69688;PMS5003;56932;38.402;-96.176;2023-04-03T02:37:58;6;5;
69688;PMS5003;56932;38.402;-96.176;2023-04-03T02:40:23;6;5;
69688;PMS5003;56932;38.402;-96.176;2023-04-03T02:42:49;5;5;
69688;PMS5003;56932;38.402;-96.176;2023-04-03T02:45:14;6;6;
69688;PMS5003;56932;38.402;-96.176;2023-04-03T02:47:40;4;4;
69688;PMS5003;56932;38.402;-96.176;2023-04-03T02:50:05;7;4;
69688;PMS5003;56932;38.402;-96.176;2023-04-03T02:52:31;5;5;
69688;PMS5003;56932;38.402;-96.176;2023-04-03T02:54:56;5;5;
69688;PMS5003;56932;38.402;-96.176;2023-04-03T02:57:22;5;4;
69688;PMS5003;56932;38.402;-96.176;2023-04-03T02:59:47;4;4;
69688;PMS5003;56932;38.402;-96.176;2023-04-03T03:02:13;4;4;
69688;PMS5003;56932;38.402;-96.176;2023-04-03T03:04:38;6;5;
69688;PMS5003;56932;38.402;-96.176;2023-04-03T03:07:04;8;5;
69688;PMS5003;56932;38.402;-96.176;2023-04-03T03:09:29;6;3;
69688;PMS5003;56932;38.402;-96.176;2023-04-03T03:11:55;4;4;
69688;PMS5003;56932;38.402;-96.176;2023-04-03T03:14:20;7;5;
69688;PMS5003;56932;38.402;-96.176;2023-04-03T03:16:46;6;6;
69688;PMS5003;56932;38.402;-96.176;2023-04-03T03:19:11;4;2;
69688;PMS5003;56932;38.402;-96.176;2023-04-03T03:21:37;5;5;
69688;PMS5003;56932;38.402;-96.176;2023-04-03T03:24:02;6;6;
69688;PMS5003;56932;38.402;-96.176;2023-04-03T03:26:28;6;5;
69688;PMS5003;56932;38.402;-96.176;2023-04-03T03:28:53;6;5;
69688;PMS5003;56932;38.402;-96.176;2023-04-03T03:31:19;4;4;
69688;PMS5003;56932;38.402;-96.176;2023-04-03T03:33:44;9;7;
69688;PMS5003;56932;38.402;-96.176;2023-04-03T03:36:10;4;4;
69688;PMS5003;56932;38.402;-96.176;2023-04-03T03:38:35;4;3;
69688;PMS5003;56932;38.402;-96.176;2023-04-03T03:41:01;5;5;
69688;PMS5003;56932;38.402;-96.176;2023-04-03T03:43:27;6;4;
69688;PMS5003;56932;38.402;-96.176;2023-04-03T03:45:52;5;3;
69688;PMS5003;56932;38.402;-96.176;2023-04-03T03:48:18;5;5;
69688;PMS5003;56932;38.402;-96.176;2023-04-03T03:50:43;4;4;
69688;PMS5003;56932;38.402;-96.176;2023-04-03T03:53:08;6;6;
69688;PMS5003;56932;38.402;-96.176;2023-04-03T03:55:34;5;3;
69688;PMS5003;56932;38.402;-96.176;2023-04-03T03:57:59;3;3;
69688;PMS5003;56932;38.402;-96.176;2023-04-03T04:00:24;4;4;
69688;PMS5003;56932;38.402;-96.176;2023-04-03T04:02:50;7;6;
69688;PMS5003;56932;38.402;-96.176;2023-04-03T04:05:15;5;5;
69688;PMS5003;56932;38.402;-96.176;2023-04-03T04:07:41;4;4;
69688;PMS5003;56932;38.402;-96.176;2023-04-03T04:10:06;3;3;
69688;PMS5003;56932;38.402;-96.176;2023-04-03T04:12:32;4;4;
69688;PMS5003;56932;38.402;-96.176;2023-04-03T04:14:57;8;5;
69688;PMS5003;56932;38.402;-96.176;2023-04-03T04:17:23;5;5;
69688;PMS5003;56932;38.402;-96.176;2023-04-03T04:19:48;3;3;
69688;PMS5003;56932;38.402;-96.176;2023-04-03T04:22:14;8;5;
69688;PMS5003;56932;38.402;-96.176;2023-04-03T04:24:39;4;4;
69688;PMS5003;56932;38.402;-96.176;2023-04-03T04:27:05;7;4;
69688;PMS5003;56932;38.402;-96.176;2023-04-03T04:29:30;8;6;
69688;PMS5003;56932;38.402;-96.176;2023-04-03T04:31:56;5;3;
69688;PMS5003;56932;38.402;-96.176;2023-04-03T04:34:21;5;4;
69688;PMS5003;56932;38.402;-96.176;2023-04-03T04:36:47;2;2;
69688;PMS5003;56932;38.402;-96.176;2023-04-03T04:39:12;5;5;
69688;PMS5003;56932;38.402;-96.176;2023-04-03T04:41:38;4;4;
69688;PMS5003;56932;38.402;-96.176;2023-04-03T04:44:03;4;4;
69688;PMS5003;56932;38.402;-96.176;2023-04-03T04:46:29;5;5;
69688;PMS5003;56932;38.402;-96.176;2023-04-03T04:48:54;7;7;
69688;PMS5003;56932;38.402;-96.176;2023-04-03T04:51:20;12;6;
69688;PMS5003;56932;38.402;-96.176;2023-04-03T04:53:45;4;4;
69688;PMS5003;56932;38.402;-96.176;2023-04-03T04:56:11;6;5;
69688;PMS5003;56932;38.402;-96.176;2023-04-03T04:58:36;4;4;
69688;PMS5003;56932;38.402;-96.176;2023-04-03T05:01:02;4;4;
69688;PMS5003;56932;38.402;-96.176;2023-04-03T05:03:27;4;4;
69688;PMS5003;56932;38.402;-96.176;2023-04-03T05:05:53;5;4;
69688;PMS5003;56932;38.402;-96.176;2023-04-03T05:08:18;6;6;
69688;PMS5003;56932;38.402;-96.176;2023-04-03T05:10:44;5;5;
69688;PMS5003;56932;38.402;-96.176;2023-04-03T05:13:09;6;6;
69688;PMS5003;56932;38.402;-96.176;2023-04-03T05:15:35;6;3;
69688;PMS5003;56932;38.402;-96.176;2023-04-03T05:18:00;8;6;
69688;PMS5003;56932;38.402;-96.176;2023-04-03T05:20:26;6;6;
69688;PMS5003;56932;38.402;-96.176;2023-04-03T05:22:51;11;7;
69688;PMS5003;56932;38.402;-96.176;2023-04-03T05:25:17;6;6;
69688;PMS5003;56932;38.402;-96.176;2023-04-03T05:27:42;5;5;
69688;PMS5003;56932;38.402;-96.176;2023-04-03T05:30:08;6;5;
69688;PMS5003;56932;38.402;-96.176;2023-04-03T05:32:33;7;7;
69688;PMS5003;56932;38.402;-96.176;2023-04-03T05:34:59;8;6;
69688;PMS5003;56932;38.402;-96.176;2023-04-03T05:37:24;5;5;
69688;PMS5003;56932;38.402;-96.176;2023-04-03T05:39:50;8;7;
69688;PMS5003;56932;38.402;-96.176;2023-04-03T05:42:16;4;4;
69688;PMS5003;56932;38.402;-96.176;2023-04-03T05:44:41;7;6;
69688;PMS5003;56932;38.402;-96.176;2023-04-03T05:47:06;5;5;
69688;PMS5003;56932;38.402;-96.176;2023-04-03T05:49:32;5;5;
69688;PMS5003;56932;38.402;-96.176;2023-04-03T05:51:57;6;6;
69688;PMS5003;56932;38.402;-96.176;2023-04-03T05:54:23;9;7;
69688;PMS5003;56932;38.402;-96.176;2023-04-03T05:56:49;8;6;
69688;PMS5003;56932;38.402;-96.176;2023-04-03T05:59:14;8;7;
69688;PMS5003;56932;38.402;-96.176;2023-04-03T06:01:39;10;8;
69688;PMS5003;56932;38.402;-96.176;2023-04-03T06:04:05;7;7;
69688;PMS5003;56932;38.402;-96.176;2023-04-03T06:09:00;8;8;
69688;PMS5003;56932;38.402;-96.176;2023-04-03T06:11:25;8;8;
69688;PMS5003;56932;38.402;-96.176;2023-04-03T06:13:50;9;8;
69688;PMS5003;56932;38.402;-96.176;2023-04-03T06:16:16;9;8;
69688;PMS5003;56932;38.402;-96.176;2023-04-03T06:18:41;9;9;
69688;PMS5003;56932;38.402;-96.176;2023-04-03T06:21:07;11;10;
69688;PMS5003;56932;38.402;-96.176;2023-04-03T06:23:33;13;12;
69688;PMS5003;56932;38.402;-96.176;2023-04-03T06:25:58;16;10;
69688;PMS5003;56932;38.402;-96.176;2023-04-03T06:28:23;13;11;
69688;PMS5003;56932;38.402;-96.176;2023-04-03T06:30:48;10;9;
69688;PMS5003;56932;38.402;-96.176;2023-04-03T06:33:14;12;12;
69688;PMS5003;56932;38.402;-96.176;2023-04-03T06:35:39;14;14;
69688;PMS5003;56932;38.402;-96.176;2023-04-03T06:38:05;13;11;
69688;PMS5003;56932;38.402;-96.176;2023-04-03T06:40:31;17;15;
69688;PMS5003;56932;38.402;-96.176;2023-04-03T06:42:56;14;12;
69688;PMS5003;56932;38.402;-96.176;2023-04-03T06:45:22;19;12;
69688;PMS5003;56932;38.402;-96.176;2023-04-03T06:47:47;12;12;
69688;PMS5003;56932;38.402;-96.176;2023-04-03T06:50:12;11;9;
69688;PMS5003;56932;38.402;-96.176;2023-04-03T06:52:38;17;14;
69688;PMS5003;56932;38.402;-96.176;2023-04-03T06:55:03;11;11;
69688;PMS5003;56932;38.402;-96.176;2023-04-03T06:57:29;16;14;
69688;PMS5003;56932;38.402;-96.176;2023-04-03T06:59:54;14;14;
69688;PMS5003;56932;38.402;-96.176;2023-04-03T07:02:19;16;14;
69688;PMS5003;56932;38.402;-96.176;2023-04-03T07:04:45;17;16;
69688;PMS5003;56932;38.402;-96.176;2023-04-03T07:07:10;16;15;
69688;PMS5003;56932;38.402;-96.176;2023-04-03T07:09:36;17;14;
69688;PMS5003;56932;38.402;-96.176;2023-04-03T07:12:01;15;15;
69688;PMS5003;56932;38.402;-96.176;2023-04-03T07:14:27;15;15;
69688;PMS5003;56932;38.402;-96.176;2023-04-03T07:16:52;17;15;
69688;PMS5003;56932;38.402;-96.176;2023-04-03T07:19:18;16;15;
69688;PMS5003;56932;38.402;-96.176;2023-04-03T07:21:44;16;14;
69688;PMS5003;56932;38.402;-96.176;2023-04-03T07:24:09;19;16;
69688;PMS5003;56932;38.402;-96.176;2023-04-03T07:26:34;14;11;
69688;PMS5003;56932;38.402;-96.176;2023-04-03T07:28:59;18;17;
69688;PMS5003;56932;38.402;-96.176;2023-04-03T07:31:24;15;15;
69688;PMS5003;56932;38.402;-96.176;2023-04-03T07:33:49;11;11;
69688;PMS5003;56932;38.402;-96.176;2023-04-03T07:36:17;14;14;
69688;PMS5003;56932;38.402;-96.176;2023-04-03T07:38:40;13;13;
69688;PMS5003;56932;38.402;-96.176;2023-04-03T07:41:05;21;13;
69688;PMS5003;56932;38.402;-96.176;2023-04-03T07:43:31;14;14;
69688;PMS5003;56932;38.402;-96.176;2023-04-03T07:45:57;17;14;
69688;PMS5003;56932;38.402;-96.176;2023-04-03T07:48:23;14;14;
69688;PMS5003;56932;38.402;-96.176;2023-04-03T07:50:48;21;12;
69688;PMS5003;56932;38.402;-96.176;2023-04-03T07:53:13;13;13;
69688;PMS5003;56932;38.402;-96.176;2023-04-03T07:55:39;13;13;
69688;PMS5003;56932;38.402;-96.176;2023-04-03T07:58:04;13;11;
69688;PMS5003;56932;38.402;-96.176;2023-04-03T08:00:30;15;12;
69688;PMS5003;56932;38.402;-96.176;2023-04-03T08:02:55;13;13;
69688;PMS5003;56932;38.402;-96.176;2023-04-03T08:05:21;12;12;
69688;PMS5003;56932;38.402;-96.176;2023-04-03T08:07:47;15;13;
69688;PMS5003;56932;38.402;-96.176;2023-04-03T08:10:12;10;10;
69688;PMS5003;56932;38.402;-96.176;2023-04-03T08:12:37;11;10;
69688;PMS5003;56932;38.402;-96.176;2023-04-03T08:15:03;11;10;
69688;PMS5003;56932;38.402;-96.176;2023-04-03T08:17:28;12;12;
69688;PMS5003;56932;38.402;-96.176;2023-04-03T08:19:53;17;12;
69688;PMS5003;56932;38.402;-96.176;2023-04-03T08:22:19;11;11;
69688;PMS5003;56932;38.402;-96.176;2023-04-03T08:24:45;12;11;
69688;PMS5003;56932;38.402;-96.176;2023-04-03T08:27:10;13;12;
69688;PMS5003;56932;38.402;-96.176;2023-04-03T08:29:36;12;11;
69688;PMS5003;56932;38.402;-96.176;2023-04-03T08:32:01;14;13;
69688;PMS5003;56932;38.402;-96.176;2023-04-03T08:34:27;13;12;
69688;PMS5003;56932;38.402;-96.176;2023-04-03T08:36:52;12;11;
69688;PMS5003;56932;38.402;-96.176;2023-04-03T08:39:18;13;12;
69688;PMS5003;56932;38.402;-96.176;2023-04-03T08:41:44;11;10;
69688;PMS5003;56932;38.402;-96.176;2023-04-03T08:44:13;12;12;
69688;PMS5003;56932;38.402;-96.176;2023-04-03T08:46:38;12;12;
69688;PMS5003;56932;38.402;-96.176;2023-04-03T08:49:00;11;11;
69688;PMS5003;56932;38.402;-96.176;2023-04-03T08:51:25;10;10;
69688;PMS5003;56932;38.402;-96.176;2023-04-03T08:53:53;11;11;
69688;PMS5003;56932;38.402;-96.176;2023-04-03T08:56:16;11;10;
69688;PMS5003;56932;38.402;-96.176;2023-04-03T08:58:42;12;12;
69688;PMS5003;56932;38.402;-96.176;2023-04-03T09:01:07;13;12;
69688;PMS5003;56932;38.402;-96.176;2023-04-03T09:03:33;9;9;
69688;PMS5003;56932;38.402;-96.176;2023-04-03T09:05:59;10;10;
69688;PMS5003;56932;38.402;-96.176;2023-04-03T09:08:23;10;10;
69688;PMS5003;56932;38.402;-96.176;2023-04-03T09:10:48;11;11;
69688;PMS5003;56932;38.402;-96.176;2023-04-03T09:13:17;13;11;
69688;PMS5003;56932;38.402;-96.176;2023-04-03T09:15:39;7;7;
69688;PMS5003;56932;38.402;-96.176;2023-04-03T09:18:05;9;9;
69688;PMS5003;56932;38.402;-96.176;2023-04-03T09:20:33;9;9;
69688;PMS5003;56932;38.402;-96.176;2023-04-03T09:22:55;7;7;
69688;PMS5003;56932;38.402;-96.176;2023-04-03T09:25:22;9;9;
69688;PMS5003;56932;38.402;-96.176;2023-04-03T09:27:47;8;8;
69688;PMS5003;56932;38.402;-96.176;2023-04-03T09:30:13;11;11;
69688;PMS5003;56932;38.402;-96.176;2023-04-03T09:32:37;11;11;
69688;PMS5003;56932;38.402;-96.176;2023-04-03T09:35:04;9;8;
69688;PMS5003;56932;38.402;-96.176;2023-04-03T09:39:54;12;9;
69688;PMS5003;56932;38.402;-96.176;2023-04-03T09:42:20;9;9;
69688;PMS5003;56932;38.402;-96.176;2023-04-03T09:44:52;11;11;
69688;PMS5003;56932;38.402;-96.176;2023-04-03T09:49:35;9;8;
69688;PMS5003;56932;38.402;-96.176;2023-04-03T09:54:31;10;8;
69688;PMS5003;56932;38.402;-96.176;2023-04-03T09:56:52;9;8;
69688;PMS5003;56932;38.402;-96.176;2023-04-03T09:59:17;10;10;
69688;PMS5003;56932;38.402;-96.176;2023-04-03T10:01:43;9;9;
69688;PMS5003;56932;38.402;-96.176;2023-04-03T10:04:09;8;8;
69688;PMS5003;56932;38.402;-96.176;2023-04-03T10:06:35;9;8;
69688;PMS5003;56932;38.402;-96.176;2023-04-03T10:09:00;8;8;
69688;PMS5003;56932;38.402;-96.176;2023-04-03T10:11:25;6;6;
69688;PMS5003;56932;38.402;-96.176;2023-04-03T10:13:51;9;9;
69688;PMS5003;56932;38.402;-96.176;2023-04-03T10:16:17;8;7;
69688;PMS5003;56932;38.402;-96.176;2023-04-03T10:18:42;7;7;
69688;PMS5003;56932;38.402;-96.176;2023-04-03T10:21:08;8;7;
69688;PMS5003;56932;38.402;-96.176;2023-04-03T10:23:33;8;8;
69688;PMS5003;56932;38.402;-96.176;2023-04-03T10:26:01;7;7;
69688;PMS5003;56932;38.402;-96.176;2023-04-03T10:28:24;9;8;
69688;PMS5003;56932;38.402;-96.176;2023-04-03T10:30:50;7;7;
69688;PMS5003;56932;38.402;-96.176;2023-04-03T10:33:18;8;7;
69688;PMS5003;56932;38.402;-96.176;2023-04-03T10:35:42;6;6;
69688;PMS5003;56932;38.402;-96.176;2023-04-03T10:38:08;8;8;
69688;PMS5003;56932;38.402;-96.176;2023-04-03T10:40:32;7;7;
69688;PMS5003;56932;38.402;-96.176;2023-04-03T10:42:57;12;7;
69688;PMS5003;56932;38.402;-96.176;2023-04-03T10:45:23;8;8;
69688;PMS5003;56932;38.402;-96.176;2023-04-03T10:47:50;10;8;
69688;PMS5003;56932;38.402;-96.176;2023-04-03T10:50:23;7;6;
69688;PMS5003;56932;38.402;-96.176;2023-04-03T10:52:40;7;6;
69688;PMS5003;56932;38.402;-96.176;2023-04-03T10:55:07;9;7;
69688;PMS5003;56932;38.402;-96.176;2023-04-03T10:57:29;6;6;
69688;PMS5003;56932;38.402;-96.176;2023-04-03T10:59:56;10;4;
69688;PMS5003;56932;38.402;-96.176;2023-04-03T11:02:22;5;5;
69688;PMS5003;56932;38.402;-96.176;2023-04-03T11:04:46;6;6;
69688;PMS5003;56932;38.402;-96.176;2023-04-03T11:07:12;6;5;
69688;PMS5003;56932;38.402;-96.176;2023-04-03T11:09:37;7;7;
69688;PMS5003;56932;38.402;-96.176;2023-04-03T11:12:04;7;7;
69688;PMS5003;56932;38.402;-96.176;2023-04-03T11:14:27;7;6;
69688;PMS5003;56932;38.402;-96.176;2023-04-03T11:16:55;9;6;
69688;PMS5003;56932;38.402;-96.176;2023-04-03T11:19:20;8;8;
69688;PMS5003;56932;38.402;-96.176;2023-04-03T11:21:45;7;6;
69688;PMS5003;56932;38.402;-96.176;2023-04-03T11:24:11;6;6;
69688;PMS5003;56932;38.402;-96.176;2023-04-03T11:26:36;6;6;
69688;PMS5003;56932;38.402;-96.176;2023-04-03T11:29:01;8;8;
69688;PMS5003;56932;38.402;-96.176;2023-04-03T11:31:29;5;5;
69688;PMS5003;56932;38.402;-96.176;2023-04-03T11:33:52;6;5;
69688;PMS5003;56932;38.402;-96.176;2023-04-03T11:36:18;8;6;
69688;PMS5003;56932;38.402;-96.176;2023-04-03T11:38:43;8;6;
69688;PMS5003;56932;38.402;-96.176;2023-04-03T11:41:08;6;5;
69688;PMS5003;56932;38.402;-96.176;2023-04-03T11:43:33;5;5;
69688;PMS5003;56932;38.402;-96.176;2023-04-03T11:45:59;4;4;
69688;PMS5003;56932;38.402;-96.176;2023-04-03T11:50:50;9;7;
69688;PMS5003;56932;38.402;-96.176;2023-04-03T12:02:57;8;7;
69688;PMS5003;56932;38.402;-96.176;2023-04-03T12:05:24;6;6;
69688;PMS5003;56932;38.402;-96.176;2023-04-03T12:10:15;8;8;
69688;PMS5003;56932;38.402;-96.176;2023-04-03T12:12:40;6;6;
69688;PMS5003;56932;38.402;-96.176;2023-04-03T12:17:30;4;4;
69688;PMS5003;56932;38.402;-96.176;2023-04-03T12:19:55;3;3;
69688;PMS5003;56932;38.402;-96.176;2023-04-03T12:22:21;6;6;
69688;PMS5003;56932;38.402;-96.176;2023-04-03T12:24:47;8;8;
69688;PMS5003;56932;38.402;-96.176;2023-04-03T12:29:38;6;5;
69688;PMS5003;56932;38.402;-96.176;2023-04-03T12:32:06;5;5;
69688;PMS5003;56932;38.402;-96.176;2023-04-03T12:36:58;5;5;
69688;PMS5003;56932;38.402;-96.176;2023-04-03T12:39:25;6;6;
69688;PMS5003;56932;38.402;-96.176;2023-04-03T12:41:46;6;6;
69688;PMS5003;56932;38.402;-96.176;2023-04-03T12:44:15;6;6;
69688;PMS5003;56932;38.402;-96.176;2023-04-03T12:46:37;8;6;
69688;PMS5003;56932;38.402;-96.176;2023-04-03T12:49:01;4;4;
69688;PMS5003;56932;38.402;-96.176;2023-04-03T12:51:28;5;5;
69688;PMS5003;56932;38.402;-96.176;2023-04-03T12:53:52;6;4;
69688;PMS5003;56932;38.402;-96.176;2023-04-03T12:56:20;8;6;
69688;PMS5003;56932;38.402;-96.176;2023-04-03T12:58:43;13;6;
69688;PMS5003;56932;38.402;-96.176;2023-04-03T13:01:09;5;5;
69688;PMS5003;56932;38.402;-96.176;2023-04-03T13:03:34;8;6;
69688;PMS5003;56932;38.402;-96.176;2023-04-03T13:06:00;6;5;
69688;PMS5003;56932;38.402;-96.176;2023-04-03T13:08:25;5;5;
69688;PMS5003;56932;38.402;-96.176;2023-04-03T13:10:53;6;6;
69688;PMS5003;56932;38.402;-96.176;2023-04-03T13:13:16;8;6;
69688;PMS5003;56932;38.402;-96.176;2023-04-03T13:15:43;5;5;
69688;PMS5003;56932;38.402;-96.176;2023-04-03T13:20:33;5;4;
69688;PMS5003;56932;38.402;-96.176;2023-04-03T13:22:59;6;3;
69688;PMS5003;56932;38.402;-96.176;2023-04-03T13:25:24;6;6;
69688;PMS5003;56932;38.402;-96.176;2023-04-03T13:27:49;5;5;
69688;PMS5003;56932;38.402;-96.176;2023-04-03T13:30:20;7;6;
69688;PMS5003;56932;38.402;-96.176;2023-04-03T13:32:40;6;6;
69688;PMS5003;56932;38.402;-96.176;2023-04-03T13:37:32;6;6;
69688;PMS5003;56932;38.402;-96.176;2023-04-03T13:39:59;6;6;
69688;PMS5003;56932;38.402;-96.176;2023-04-03T13:42:23;4;4;
69688;PMS5003;56932;38.402;-96.176;2023-04-03T13:44:48;6;6;
69688;PMS5003;56932;38.402;-96.176;2023-04-03T13:47:15;5;4;
69688;PMS5003;56932;38.402;-96.176;2023-04-03T13:49:40;7;6;
69688;PMS5003;56932;38.402;-96.176;2023-04-03T13:54:31;4;4;
69688;PMS5003;56932;38.402;-96.176;2023-04-03T13:56:56;5;4;
69688;PMS5003;56932;38.402;-96.176;2023-04-03T13:59:22;6;6;
69688;PMS5003;56932;38.402;-96.176;2023-04-03T14:01:47;6;5;
69688;PMS5003;56932;38.402;-96.176;2023-04-03T14:04:15;4;4;
69688;PMS5003;56932;38.402;-96.176;2023-04-03T14:06:37;6;6;
69688;PMS5003;56932;38.402;-96.176;2023-04-03T14:09:03;4;4;
69688;PMS5003;56932;38.402;-96.176;2023-04-03T14:11:29;5;4;
69688;PMS5003;56932;38.402;-96.176;2023-04-03T14:13:53;6;6;
69688;PMS5003;56932;38.402;-96.176;2023-04-03T14:16:20;5;5;
69688;PMS5003;56932;38.402;-96.176;2023-04-03T14:18:45;6;6;
69688;PMS5003;56932;38.402;-96.176;2023-04-03T14:21:11;5;5;
69688;PMS5003;56932;38.402;-96.176;2023-04-03T14:23:36;5;5;
69688;PMS5003;56932;38.402;-96.176;2023-04-03T14:26:01;6;5;
69688;PMS5003;56932;38.402;-96.176;2023-04-03T14:28:27;8;8;
69688;PMS5003;56932;38.402;-96.176;2023-04-03T14:30:52;5;5;
69688;PMS5003;56932;38.402;-96.176;2023-04-03T14:33:19;4;4;
69688;PMS5003;56932;38.402;-96.176;2023-04-03T14:35:44;6;6;
69688;PMS5003;56932;38.402;-96.176;2023-04-03T14:38:13;5;5;
69688;PMS5003;56932;38.402;-96.176;2023-04-03T14:40:34;4;4;
69688;PMS5003;56932;38.402;-96.176;2023-04-03T14:43:00;7;4;
69688;PMS5003;56932;38.402;-96.176;2023-04-03T14:45:25;7;6;
69688;PMS5003;56932;38.402;-96.176;2023-04-03T14:47:52;5;5;
69688;PMS5003;56932;38.402;-96.176;2023-04-03T14:50:18;6;5;
69688;PMS5003;56932;38.402;-96.176;2023-04-03T14:52:42;7;7;
69688;PMS5003;56932;38.402;-96.176;2023-04-03T14:55:07;5;5;
69688;PMS5003;56932;38.402;-96.176;2023-04-03T14:57:33;6;6;
69688;PMS5003;56932;38.402;-96.176;2023-04-03T14:59:58;6;6;
69688;PMS5003;56932;38.402;-96.176;2023-04-03T15:02:27;6;6;
69688;PMS5003;56932;38.402;-96.176;2023-04-03T15:04:49;14;5;
69688;PMS5003;56932;38.402;-96.176;2023-04-03T15:07:14;6;6;
69688;PMS5003;56932;38.402;-96.176;2023-04-03T15:09:40;4;4;
69688;PMS5003;56932;38.402;-96.176;2023-04-03T15:12:07;4;4;
69688;PMS5003;56932;38.402;-96.176;2023-04-03T15:14:31;5;5;
69688;PMS5003;56932;38.402;-96.176;2023-04-03T15:16:57;5;5;
69688;PMS5003;56932;38.402;-96.176;2023-04-03T15:19:23;5;5;
69688;PMS5003;56932;38.402;-96.176;2023-04-03T15:21:48;6;6;
69688;PMS5003;56932;38.402;-96.176;2023-04-03T15:24:13;5;5;
69688;PMS5003;56932;38.402;-96.176;2023-04-03T15:26:39;7;6;
69688;PMS5003;56932;38.402;-96.176;2023-04-03T15:29:04;5;5;
69688;PMS5003;56932;38.402;-96.176;2023-04-03T15:31:29;5;4;
69688;PMS5003;56932;38.402;-96.176;2023-04-03T15:33:55;6;6;
69688;PMS5003;56932;38.402;-96.176;2023-04-03T15:36:21;5;5;
69688;PMS5003;56932;38.402;-96.176;2023-04-03T15:38:46;6;6;
69688;PMS5003;56932;38.402;-96.176;2023-04-03T15:41:12;5;5;
69688;PMS5003;56932;38.402;-96.176;2023-04-03T15:43:37;5;5;
69688;PMS5003;56932;38.402;-96.176;2023-04-03T15:46:03;7;6;
69688;PMS5003;56932;38.402;-96.176;2023-04-03T15:48:28;8;7;
69688;PMS5003;56932;38.402;-96.176;2023-04-03T15:50:54;5;5;
69688;PMS5003;56932;38.402;-96.176;2023-04-03T15:53:19;5;5;
69688;PMS5003;56932;38.402;-96.176;2023-04-03T15:55:45;4;4;
69688;PMS5003;56932;38.402;-96.176;2023-04-03T15:58:10;10;9;
69688;PMS5003;56932;38.402;-96.176;2023-04-03T16:00:36;6;6;
69688;PMS5003;56932;38.402;-96.176;2023-04-03T16:03:05;6;5;
69688;PMS5003;56932;38.402;-96.176;2023-04-03T16:05:27;8;6;
69688;PMS5003;56932;38.402;-96.176;2023-04-03T16:07:52;6;6;
69688;PMS5003;56932;38.402;-96.176;2023-04-03T16:10:18;5;5;
69688;PMS5003;56932;38.402;-96.176;2023-04-03T16:12:43;6;6;
69688;PMS5003;56932;38.402;-96.176;2023-04-03T16:15:09;8;5;
69688;PMS5003;56932;38.402;-96.176;2023-04-03T16:17:34;7;7;
69688;PMS5003;56932;38.402;-96.176;2023-04-03T16:20:00;6;5;
69688;PMS5003;56932;38.402;-96.176;2023-04-03T16:22:26;4;4;
69688;PMS5003;56932;38.402;-96.176;2023-04-03T16:24:51;5;5;
69688;PMS5003;56932;38.402;-96.176;2023-04-03T16:27:16;7;7;
69688;PMS5003;56932;38.402;-96.176;2023-04-03T16:29:42;4;4;
69688;PMS5003;56932;38.402;-96.176;2023-04-03T16:32:08;3;3;
69688;PMS5003;56932;38.402;-96.176;2023-04-03T16:34:33;4;4;
69688;PMS5003;56932;38.402;-96.176;2023-04-03T16:36:59;5;5;
69688;PMS5003;56932;38.402;-96.176;2023-04-03T16:39:24;4;4;
69688;PMS5003;56932;38.402;-96.176;2023-04-03T16:41:50;6;6;